KMWO/MWO METAR and TAF weather

Enter ICAO airport designator
Station Type Date Time Source
KMWO METAR 2021/01/20 21:55 UTC NOAA

KMWO 202155Z AUTO 21010KT 10SM CLR 02/M08 A3013 RMK AO2 T00241083


Station Type Date Time Source
KMWO Decoded METAR 2021/01/20 21:55 UTC NOAA

Station name not available
Jan 20, 2021 - 04:55 PM EST / 2021.01.20 2155 UTC
Wind: from the SSW (210 degrees) at 12 MPH (10 KT):0
Visibility: 10 mile(s):0
Sky conditions: clear
Temperature: 36.3 F (2.4 C)
Dew Point: 17.1 F (-8.3 C)
Relative Humidity: 45%
Pressure (altimeter): 30.13 in. Hg (1020 hPa)
ob: KMWO 202155Z AUTO 21010KT 10SM CLR 02/M08 A3013 RMK AO2 T00241083
cycle: 22

Station Type Date Time Source
KMWO TAF UTC NOAA

Error!

Example: see airport list